sensor_id;sensor_type;location;lat;lon;timestamp;temperature;humidity
81192;DHT22;70665;47.652;-2.730;2023-11-19T00:00:42;16.00;94.30
81192;DHT22;70665;47.652;-2.730;2023-11-19T00:03:08;16.00;94.30
81192;DHT22;70665;47.652;-2.730;2023-11-19T00:05:34;15.90;94.20
81192;DHT22;70665;47.652;-2.730;2023-11-19T00:07:59;15.90;94.00
81192;DHT22;70665;47.652;-2.730;2023-11-19T00:10:25;15.90;93.80
81192;DHT22;70665;47.652;-2.730;2023-11-19T00:12:50;15.90;93.70
81192;DHT22;70665;47.652;-2.730;2023-11-19T00:15:16;15.90;94.20
81192;DHT22;70665;47.652;-2.730;2023-11-19T00:17:45;15.80;94.30
81192;DHT22;70665;47.652;-2.730;2023-11-19T00:20:20;15.80;94.10
81192;DHT22;70665;47.652;-2.730;2023-11-19T00:22:48;15.70;94.00
81192;DHT22;70665;47.652;-2.730;2023-11-19T00:25:17;15.80;93.90
81192;DHT22;70665;47.652;-2.730;2023-11-19T00:27:42;15.80;93.80
81192;DHT22;70665;47.652;-2.730;2023-11-19T00:30:11;15.80;93.80
81192;DHT22;70665;47.652;-2.730;2023-11-19T00:32:37;15.80;93.70
81192;DHT22;70665;47.652;-2.730;2023-11-19T00:35:05;15.80;93.60
81192;DHT22;70665;47.652;-2.730;2023-11-19T00:37:31;15.80;93.40
81192;DHT22;70665;47.652;-2.730;2023-11-19T00:39:56;15.70;93.20
81192;DHT22;70665;47.652;-2.730;2023-11-19T00:42:23;15.60;93.40
81192;DHT22;70665;47.652;-2.730;2023-11-19T00:44:52;15.60;93.50
81192;DHT22;70665;47.652;-2.730;2023-11-19T00:47:18;15.60;93.40
81192;DHT22;70665;47.652;-2.730;2023-11-19T00:49:49;15.70;93.40
81192;DHT22;70665;47.652;-2.730;2023-11-19T00:52:16;15.50;93.40
81192;DHT22;70665;47.652;-2.730;2023-11-19T00:54:41;15.50;93.60
81192;DHT22;70665;47.652;-2.730;2023-11-19T00:57:07;15.60;93.60
81192;DHT22;70665;47.652;-2.730;2023-11-19T00:59:33;15.50;93.80
81192;DHT22;70665;47.652;-2.730;2023-11-19T01:01:58;15.50;93.70
81192;DHT22;70665;47.652;-2.730;2023-11-19T01:04:34;15.60;93.40
81192;DHT22;70665;47.652;-2.730;2023-11-19T01:07:02;15.50;92.90
81192;DHT22;70665;47.652;-2.730;2023-11-19T01:09:29;15.60;92.80
81192;DHT22;70665;47.652;-2.730;2023-11-19T01:11:57;15.50;92.80
81192;DHT22;70665;47.652;-2.730;2023-11-19T01:14:23;15.40;92.80
81192;DHT22;70665;47.652;-2.730;2023-11-19T01:16:49;15.50;93.20
81192;DHT22;70665;47.652;-2.730;2023-11-19T01:19:14;15.50;93.20
81192;DHT22;70665;47.652;-2.730;2023-11-19T01:21:40;15.30;93.00
81192;DHT22;70665;47.652;-2.730;2023-11-19T01:24:06;15.30;93.10
81192;DHT22;70665;47.652;-2.730;2023-11-19T01:26:34;15.30;92.90
81192;DHT22;70665;47.652;-2.730;2023-11-19T01:29:00;15.30;92.90
81192;DHT22;70665;47.652;-2.730;2023-11-19T01:31:26;15.30;92.90
81192;DHT22;70665;47.652;-2.730;2023-11-19T01:33:52;15.20;92.90
81192;DHT22;70665;47.652;-2.730;2023-11-19T01:36:17;15.10;92.50
81192;DHT22;70665;47.652;-2.730;2023-11-19T01:38:43;15.10;93.10
81192;DHT22;70665;47.652;-2.730;2023-11-19T01:41:10;15.10;92.90
81192;DHT22;70665;47.652;-2.730;2023-11-19T01:43:37;15.10;92.90
81192;DHT22;70665;47.652;-2.730;2023-11-19T01:46:04;15.00;93.60
81192;DHT22;70665;47.652;-2.730;2023-11-19T01:48:31;15.00;93.50
81192;DHT22;70665;47.652;-2.730;2023-11-19T01:50:58;15.00;93.60
81192;DHT22;70665;47.652;-2.730;2023-11-19T01:53:25;15.00;93.70
81192;DHT22;70665;47.652;-2.730;2023-11-19T01:55:51;15.10;93.70
81192;DHT22;70665;47.652;-2.730;2023-11-19T01:58:18;15.00;93.40
81192;DHT22;70665;47.652;-2.730;2023-11-19T02:00:44;15.00;93.70
81192;DHT22;70665;47.652;-2.730;2023-11-19T02:03:11;14.90;93.70
81192;DHT22;70665;47.652;-2.730;2023-11-19T02:05:37;15.00;93.60
81192;DHT22;70665;47.652;-2.730;2023-11-19T02:08:04;15.00;93.80
81192;DHT22;70665;47.652;-2.730;2023-11-19T02:10:29;15.10;93.50
81192;DHT22;70665;47.652;-2.730;2023-11-19T02:12:57;15.10;93.50
81192;DHT22;70665;47.652;-2.730;2023-11-19T02:15:23;14.90;93.40
81192;DHT22;70665;47.652;-2.730;2023-11-19T02:17:50;15.00;93.70
81192;DHT22;70665;47.652;-2.730;2023-11-19T02:20:16;15.00;93.60
81192;DHT22;70665;47.652;-2.730;2023-11-19T02:22:42;14.90;93.80
81192;DHT22;70665;47.652;-2.730;2023-11-19T02:25:21;14.90;93.60
81192;DHT22;70665;47.652;-2.730;2023-11-19T02:27:53;14.90;93.70
81192;DHT22;70665;47.652;-2.730;2023-11-19T02:30:21;14.80;93.80
81192;DHT22;70665;47.652;-2.730;2023-11-19T02:33:00;14.90;94.00
81192;DHT22;70665;47.652;-2.730;2023-11-19T02:35:31;14.80;94.10
81192;DHT22;70665;47.652;-2.730;2023-11-19T02:37:58;14.90;94.00
81192;DHT22;70665;47.652;-2.730;2023-11-19T02:40:29;14.80;94.00
81192;DHT22;70665;47.652;-2.730;2023-11-19T02:42:54;14.80;93.90
81192;DHT22;70665;47.652;-2.730;2023-11-19T02:45:22;14.70;94.00
81192;DHT22;70665;47.652;-2.730;2023-11-19T02:47:48;14.70;94.00
81192;DHT22;70665;47.652;-2.730;2023-11-19T02:50:14;14.80;94.00
81192;DHT22;70665;47.652;-2.730;2023-11-19T02:52:44;14.70;94.20
81192;DHT22;70665;47.652;-2.730;2023-11-19T02:55:11;14.70;94.20
81192;DHT22;70665;47.652;-2.730;2023-11-19T02:57:40;14.60;94.20
81192;DHT22;70665;47.652;-2.730;2023-11-19T03:00:17;14.60;94.30
81192;DHT22;70665;47.652;-2.730;2023-11-19T03:02:46;14.70;94.50
81192;DHT22;70665;47.652;-2.730;2023-11-19T03:05:15;14.60;94.50
81192;DHT22;70665;47.652;-2.730;2023-11-19T03:07:44;14.60;94.90
81192;DHT22;70665;47.652;-2.730;2023-11-19T03:10:10;14.60;94.60
81192;DHT22;70665;47.652;-2.730;2023-11-19T03:12:40;14.50;94.70
81192;DHT22;70665;47.652;-2.730;2023-11-19T03:15:07;14.50;94.60
81192;DHT22;70665;47.652;-2.730;2023-11-19T03:17:33;14.50;94.60
81192;DHT22;70665;47.652;-2.730;2023-11-19T03:20:00;14.40;94.60
81192;DHT22;70665;47.652;-2.730;2023-11-19T03:22:26;14.30;94.90
81192;DHT22;70665;47.652;-2.730;2023-11-19T03:24:52;14.40;95.00
81192;DHT22;70665;47.652;-2.730;2023-11-19T03:27:17;14.40;95.10
81192;DHT22;70665;47.652;-2.730;2023-11-19T03:29:43;14.30;95.10
81192;DHT22;70665;47.652;-2.730;2023-11-19T03:32:08;14.40;95.20
81192;DHT22;70665;47.652;-2.730;2023-11-19T03:34:34;14.20;95.30
81192;DHT22;70665;47.652;-2.730;2023-11-19T03:36:59;14.20;95.20
81192;DHT22;70665;47.652;-2.730;2023-11-19T03:39:25;14.20;95.30
81192;DHT22;70665;47.652;-2.730;2023-11-19T03:41:52;14.20;95.40
81192;DHT22;70665;47.652;-2.730;2023-11-19T03:44:18;14.10;95.50
81192;DHT22;70665;47.652;-2.730;2023-11-19T03:46:44;14.20;95.70
81192;DHT22;70665;47.652;-2.730;2023-11-19T03:49:11;14.20;95.80
81192;DHT22;70665;47.652;-2.730;2023-11-19T03:51:37;14.20;95.60
81192;DHT22;70665;47.652;-2.730;2023-11-19T03:54:03;14.20;95.50
81192;DHT22;70665;47.652;-2.730;2023-11-19T03:56:28;14.10;95.60
81192;DHT22;70665;47.652;-2.730;2023-11-19T03:58:54;14.20;95.70
81192;DHT22;70665;47.652;-2.730;2023-11-19T04:01:19;14.20;95.90
81192;DHT22;70665;47.652;-2.730;2023-11-19T04:03:45;14.10;96.20
81192;DHT22;70665;47.652;-2.730;2023-11-19T04:06:11;14.10;96.10
81192;DHT22;70665;47.652;-2.730;2023-11-19T04:08:36;14.10;95.80
81192;DHT22;70665;47.652;-2.730;2023-11-19T04:11:05;14.00;96.10
81192;DHT22;70665;47.652;-2.730;2023-11-19T04:13:31;14.10;96.30
81192;DHT22;70665;47.652;-2.730;2023-11-19T04:15:56;14.00;96.40
81192;DHT22;70665;47.652;-2.730;2023-11-19T04:18:22;14.10;96.40
81192;DHT22;70665;47.652;-2.730;2023-11-19T04:20:48;14.10;96.50
81192;DHT22;70665;47.652;-2.730;2023-11-19T04:23:13;14.10;96.20
81192;DHT22;70665;47.652;-2.730;2023-11-19T04:25:39;14.10;96.20
81192;DHT22;70665;47.652;-2.730;2023-11-19T04:28:05;14.10;96.30
81192;DHT22;70665;47.652;-2.730;2023-11-19T04:30:30;14.10;96.30
81192;DHT22;70665;47.652;-2.730;2023-11-19T04:32:57;14.10;96.40
81192;DHT22;70665;47.652;-2.730;2023-11-19T04:35:23;14.10;96.40
81192;DHT22;70665;47.652;-2.730;2023-11-19T04:37:49;14.10;96.40
81192;DHT22;70665;47.652;-2.730;2023-11-19T04:40:14;14.10;96.10
81192;DHT22;70665;47.652;-2.730;2023-11-19T04:42:40;14.10;96.40
81192;DHT22;70665;47.652;-2.730;2023-11-19T04:45:06;14.10;96.10
81192;DHT22;70665;47.652;-2.730;2023-11-19T04:47:32;14.10;96.10
81192;DHT22;70665;47.652;-2.730;2023-11-19T04:49:58;14.10;96.00
81192;DHT22;70665;47.652;-2.730;2023-11-19T04:52:24;14.10;96.00
81192;DHT22;70665;47.652;-2.730;2023-11-19T04:54:49;14.10;95.90
81192;DHT22;70665;47.652;-2.730;2023-11-19T04:57:15;14.00;95.80
81192;DHT22;70665;47.652;-2.730;2023-11-19T04:59:41;14.00;95.80
81192;DHT22;70665;47.652;-2.730;2023-11-19T05:02:07;14.00;95.40
81192;DHT22;70665;47.652;-2.730;2023-11-19T05:04:33;14.00;95.40
81192;DHT22;70665;47.652;-2.730;2023-11-19T05:06:59;14.00;95.40
81192;DHT22;70665;47.652;-2.730;2023-11-19T05:09:24;14.00;95.10
81192;DHT22;70665;47.652;-2.730;2023-11-19T05:11:50;14.00;94.90
81192;DHT22;70665;47.652;-2.730;2023-11-19T05:14:16;14.00;94.70
81192;DHT22;70665;47.652;-2.730;2023-11-19T05:16:42;14.10;94.50
81192;DHT22;70665;47.652;-2.730;2023-11-19T05:19:08;14.00;94.40
81192;DHT22;70665;47.652;-2.730;2023-11-19T05:21:34;14.00;94.30
81192;DHT22;70665;47.652;-2.730;2023-11-19T05:24:04;14.00;94.10
81192;DHT22;70665;47.652;-2.730;2023-11-19T05:26:30;14.00;93.90
81192;DHT22;70665;47.652;-2.730;2023-11-19T05:28:55;14.00;93.70
81192;DHT22;70665;47.652;-2.730;2023-11-19T05:31:21;14.00;93.50
81192;DHT22;70665;47.652;-2.730;2023-11-19T05:33:47;14.00;93.50
81192;DHT22;70665;47.652;-2.730;2023-11-19T05:36:13;13.90;93.40
81192;DHT22;70665;47.652;-2.730;2023-11-19T05:38:38;14.00;93.30
81192;DHT22;70665;47.652;-2.730;2023-11-19T05:41:05;14.10;93.00
81192;DHT22;70665;47.652;-2.730;2023-11-19T05:43:33;14.20;92.80
81192;DHT22;70665;47.652;-2.730;2023-11-19T05:45:58;14.20;92.40
81192;DHT22;70665;47.652;-2.730;2023-11-19T05:48:26;14.20;92.10
81192;DHT22;70665;47.652;-2.730;2023-11-19T05:50:52;14.20;91.80
81192;DHT22;70665;47.652;-2.730;2023-11-19T05:53:18;14.20;91.70
81192;DHT22;70665;47.652;-2.730;2023-11-19T05:55:44;14.20;91.80
81192;DHT22;70665;47.652;-2.730;2023-11-19T05:58:12;14.20;91.50
81192;DHT22;70665;47.652;-2.730;2023-11-19T06:00:38;14.20;91.60
81192;DHT22;70665;47.652;-2.730;2023-11-19T06:03:04;14.20;91.70
81192;DHT22;70665;47.652;-2.730;2023-11-19T06:05:29;14.30;91.70
81192;DHT22;70665;47.652;-2.730;2023-11-19T06:07:55;14.30;91.60
81192;DHT22;70665;47.652;-2.730;2023-11-19T06:10:23;14.30;91.80
81192;DHT22;70665;47.652;-2.730;2023-11-19T06:12:54;14.40;91.70
81192;DHT22;70665;47.652;-2.730;2023-11-19T06:15:22;14.30;91.80
81192;DHT22;70665;47.652;-2.730;2023-11-19T06:17:48;14.30;91.70
81192;DHT22;70665;47.652;-2.730;2023-11-19T06:20:13;14.30;91.40
81192;DHT22;70665;47.652;-2.730;2023-11-19T06:22:39;14.30;91.50
81192;DHT22;70665;47.652;-2.730;2023-11-19T06:25:08;14.30;91.50
81192;DHT22;70665;47.652;-2.730;2023-11-19T06:27:33;14.30;91.70
81192;DHT22;70665;47.652;-2.730;2023-11-19T06:30:00;14.20;91.80
81192;DHT22;70665;47.652;-2.730;2023-11-19T06:32:26;14.30;92.00
81192;DHT22;70665;47.652;-2.730;2023-11-19T06:34:51;14.20;92.30
81192;DHT22;70665;47.652;-2.730;2023-11-19T06:37:17;14.10;91.70
81192;DHT22;70665;47.652;-2.730;2023-11-19T06:39:42;14.10;92.30
81192;DHT22;70665;47.652;-2.730;2023-11-19T06:42:08;14.10;92.30
81192;DHT22;70665;47.652;-2.730;2023-11-19T06:44:34;14.10;92.30
81192;DHT22;70665;47.652;-2.730;2023-11-19T06:46:59;14.00;92.00
81192;DHT22;70665;47.652;-2.730;2023-11-19T06:49:25;14.00;91.90
81192;DHT22;70665;47.652;-2.730;2023-11-19T06:51:51;14.00;91.50
81192;DHT22;70665;47.652;-2.730;2023-11-19T06:54:16;14.10;91.40
81192;DHT22;70665;47.652;-2.730;2023-11-19T06:56:42;14.00;91.00
81192;DHT22;70665;47.652;-2.730;2023-11-19T06:59:08;14.00;90.80
81192;DHT22;70665;47.652;-2.730;2023-11-19T07:01:35;14.00;90.70
81192;DHT22;70665;47.652;-2.730;2023-11-19T07:04:01;14.00;90.20
81192;DHT22;70665;47.652;-2.730;2023-11-19T07:06:33;14.00;90.30
81192;DHT22;70665;47.652;-2.730;2023-11-19T07:09:00;14.00;90.30
81192;DHT22;70665;47.652;-2.730;2023-11-19T07:11:28;14.00;90.30
81192;DHT22;70665;47.652;-2.730;2023-11-19T07:13:54;14.00;90.40
81192;DHT22;70665;47.652;-2.730;2023-11-19T07:16:20;13.90;90.10
81192;DHT22;70665;47.652;-2.730;2023-11-19T07:18:48;13.90;90.00
81192;DHT22;70665;47.652;-2.730;2023-11-19T07:21:15;14.00;89.90
81192;DHT22;70665;47.652;-2.730;2023-11-19T07:23:41;13.90;89.90
81192;DHT22;70665;47.652;-2.730;2023-11-19T07:26:07;14.00;89.90
81192;DHT22;70665;47.652;-2.730;2023-11-19T07:28:33;13.90;89.80
81192;DHT22;70665;47.652;-2.730;2023-11-19T07:31:00;13.90;89.80
81192;DHT22;70665;47.652;-2.730;2023-11-19T07:33:25;14.00;90.00
81192;DHT22;70665;47.652;-2.730;2023-11-19T07:35:51;14.00;89.50
81192;DHT22;70665;47.652;-2.730;2023-11-19T07:38:17;13.90;89.60
81192;DHT22;70665;47.652;-2.730;2023-11-19T07:40:43;14.00;89.70
81192;DHT22;70665;47.652;-2.730;2023-11-19T07:43:09;14.00;89.40
81192;DHT22;70665;47.652;-2.730;2023-11-19T07:45:34;14.00;89.20
81192;DHT22;70665;47.652;-2.730;2023-11-19T07:48:00;13.90;89.40
81192;DHT22;70665;47.652;-2.730;2023-11-19T07:50:27;14.00;89.50
81192;DHT22;70665;47.652;-2.730;2023-11-19T07:52:53;14.00;89.60
81192;DHT22;70665;47.652;-2.730;2023-11-19T07:55:18;14.00;89.00
81192;DHT22;70665;47.652;-2.730;2023-11-19T07:57:44;14.10;89.10
81192;DHT22;70665;47.652;-2.730;2023-11-19T08:00:11;14.10;88.70
81192;DHT22;70665;47.652;-2.730;2023-11-19T08:02:39;14.20;88.60
81192;DHT22;70665;47.652;-2.730;2023-11-19T08:05:05;14.20;88.50
81192;DHT22;70665;47.652;-2.730;2023-11-19T08:07:31;14.20;88.10
81192;DHT22;70665;47.652;-2.730;2023-11-19T08:09:57;14.20;88.60
81192;DHT22;70665;47.652;-2.730;2023-11-19T08:12:22;14.20;88.50
81192;DHT22;70665;47.652;-2.730;2023-11-19T08:14:48;14.20;88.00
81192;DHT22;70665;47.652;-2.730;2023-11-19T08:17:14;14.30;88.60
81192;DHT22;70665;47.652;-2.730;2023-11-19T08:19:41;14.40;88.20
81192;DHT22;70665;47.652;-2.730;2023-11-19T08:22:06;14.50;88.10
81192;DHT22;70665;47.652;-2.730;2023-11-19T08:24:32;14.50;87.90
81192;DHT22;70665;47.652;-2.730;2023-11-19T08:26:58;14.50;87.70
81192;DHT22;70665;47.652;-2.730;2023-11-19T08:29:23;14.50;87.80
81192;DHT22;70665;47.652;-2.730;2023-11-19T08:31:50;14.50;87.70
81192;DHT22;70665;47.652;-2.730;2023-11-19T08:34:15;14.60;87.60
81192;DHT22;70665;47.652;-2.730;2023-11-19T08:36:41;14.60;87.50
81192;DHT22;70665;47.652;-2.730;2023-11-19T08:39:06;14.50;87.40
81192;DHT22;70665;47.652;-2.730;2023-11-19T08:41:34;14.60;87.10
81192;DHT22;70665;47.652;-2.730;2023-11-19T08:43:59;14.60;87.40
81192;DHT22;70665;47.652;-2.730;2023-11-19T08:46:25;14.60;87.00
81192;DHT22;70665;47.652;-2.730;2023-11-19T08:48:51;14.80;87.00
81192;DHT22;70665;47.652;-2.730;2023-11-19T08:51:17;14.90;86.20
81192;DHT22;70665;47.652;-2.730;2023-11-19T08:53:42;14.90;86.00
81192;DHT22;70665;47.652;-2.730;2023-11-19T08:56:08;15.10;85.60
81192;DHT22;70665;47.652;-2.730;2023-11-19T08:58:34;15.10;85.20
81192;DHT22;70665;47.652;-2.730;2023-11-19T09:00:59;15.20;84.70
81192;DHT22;70665;47.652;-2.730;2023-11-19T09:03:26;15.30;84.70
81192;DHT22;70665;47.652;-2.730;2023-11-19T09:05:55;15.20;84.20
81192;DHT22;70665;47.652;-2.730;2023-11-19T09:08:21;15.30;84.60
81192;DHT22;70665;47.652;-2.730;2023-11-19T09:10:46;15.20;84.30
81192;DHT22;70665;47.652;-2.730;2023-11-19T09:13:12;15.20;84.10
81192;DHT22;70665;47.652;-2.730;2023-11-19T09:15:38;15.30;84.40
81192;DHT22;70665;47.652;-2.730;2023-11-19T09:18:03;15.30;84.00
81192;DHT22;70665;47.652;-2.730;2023-11-19T09:20:30;15.40;84.10
81192;DHT22;70665;47.652;-2.730;2023-11-19T09:23:03;15.50;84.10
81192;DHT22;70665;47.652;-2.730;2023-11-19T09:25:28;15.50;83.80
81192;DHT22;70665;47.652;-2.730;2023-11-19T09:27:54;15.50;83.20
81192;DHT22;70665;47.652;-2.730;2023-11-19T09:30:20;15.50;84.20
81192;DHT22;70665;47.652;-2.730;2023-11-19T09:32:46;15.70;83.70
81192;DHT22;70665;47.652;-2.730;2023-11-19T09:35:11;15.90;82.70
81192;DHT22;70665;47.652;-2.730;2023-11-19T09:37:39;15.90;83.10
81192;DHT22;70665;47.652;-2.730;2023-11-19T09:40:05;16.00;81.80
81192;DHT22;70665;47.652;-2.730;2023-11-19T09:42:39;15.80;82.20
81192;DHT22;70665;47.652;-2.730;2023-11-19T09:45:14;15.80;82.40
81192;DHT22;70665;47.652;-2.730;2023-11-19T09:47:44;15.80;82.60
81192;DHT22;70665;47.652;-2.730;2023-11-19T09:50:15;15.80;83.10
81192;DHT22;70665;47.652;-2.730;2023-11-19T09:52:41;15.80;83.00
81192;DHT22;70665;47.652;-2.730;2023-11-19T09:55:07;15.80;82.50
81192;DHT22;70665;47.652;-2.730;2023-11-19T09:57:32;15.80;80.90
81192;DHT22;70665;47.652;-2.730;2023-11-19T10:00:01;16.10;81.10
81192;DHT22;70665;47.652;-2.730;2023-11-19T10:02:31;16.30;80.90
81192;DHT22;70665;47.652;-2.730;2023-11-19T10:04:59;16.40;81.50
81192;DHT22;70665;47.652;-2.730;2023-11-19T10:07:28;16.50;80.10
81192;DHT22;70665;47.652;-2.730;2023-11-19T10:09:53;16.60;79.90
81192;DHT22;70665;47.652;-2.730;2023-11-19T10:12:19;16.60;79.80
81192;DHT22;70665;47.652;-2.730;2023-11-19T10:14:46;16.60;79.70
81192;DHT22;70665;47.652;-2.730;2023-11-19T10:17:13;16.60;80.60
81192;DHT22;70665;47.652;-2.730;2023-11-19T10:19:40;16.80;80.10
81192;DHT22;70665;47.652;-2.730;2023-11-19T10:22:07;16.90;79.80
81192;DHT22;70665;47.652;-2.730;2023-11-19T10:24:33;17.20;78.00
81192;DHT22;70665;47.652;-2.730;2023-11-19T10:27:02;17.40;77.90
81192;DHT22;70665;47.652;-2.730;2023-11-19T10:29:29;17.40;76.90
81192;DHT22;70665;47.652;-2.730;2023-11-19T10:31:56;17.50;77.10
81192;DHT22;70665;47.652;-2.730;2023-11-19T10:34:26;17.40;75.90
81192;DHT22;70665;47.652;-2.730;2023-11-19T10:36:52;17.40;76.80
81192;DHT22;70665;47.652;-2.730;2023-11-19T10:39:18;17.30;76.30
81192;DHT22;70665;47.652;-2.730;2023-11-19T10:41:44;17.20;76.40
81192;DHT22;70665;47.652;-2.730;2023-11-19T10:44:09;17.20;76.20
81192;DHT22;70665;47.652;-2.730;2023-11-19T10:46:39;17.00;77.10
81192;DHT22;70665;47.652;-2.730;2023-11-19T10:49:06;16.90;78.30
81192;DHT22;70665;47.652;-2.730;2023-11-19T10:51:32;16.70;77.60
81192;DHT22;70665;47.652;-2.730;2023-11-19T10:54:00;16.60;78.00
81192;DHT22;70665;47.652;-2.730;2023-11-19T10:56:30;16.70;79.40
81192;DHT22;70665;47.652;-2.730;2023-11-19T10:58:56;16.80;78.30
81192;DHT22;70665;47.652;-2.730;2023-11-19T11:01:27;16.90;77.60
81192;DHT22;70665;47.652;-2.730;2023-11-19T11:03:59;17.20;77.20
81192;DHT22;70665;47.652;-2.730;2023-11-19T11:06:27;17.20;76.90
81192;DHT22;70665;47.652;-2.730;2023-11-19T11:08:54;17.00;76.60
81192;DHT22;70665;47.652;-2.730;2023-11-19T11:11:20;17.20;77.10
81192;DHT22;70665;47.652;-2.730;2023-11-19T11:13:50;17.00;76.00
81192;DHT22;70665;47.652;-2.730;2023-11-19T11:16:18;16.90;76.10
81192;DHT22;70665;47.652;-2.730;2023-11-19T11:18:48;17.10;76.40
81192;DHT22;70665;47.652;-2.730;2023-11-19T11:21:20;17.10;75.80
81192;DHT22;70665;47.652;-2.730;2023-11-19T11:24:21;17.30;73.50
81192;DHT22;70665;47.652;-2.730;2023-11-19T11:37:46;17.10;75.90
81192;DHT22;70665;47.652;-2.730;2023-11-19T11:40:17;17.00;76.00
81192;DHT22;70665;47.652;-2.730;2023-11-19T11:42:44;16.90;75.60
81192;DHT22;70665;47.652;-2.730;2023-11-19T11:45:13;16.90;76.10
81192;DHT22;70665;47.652;-2.730;2023-11-19T11:50:26;17.40;73.80
81192;DHT22;70665;47.652;-2.730;2023-11-19T11:55:35;17.90;72.50
81192;DHT22;70665;47.652;-2.730;2023-11-19T11:58:05;18.50;70.70
81192;DHT22;70665;47.652;-2.730;2023-11-19T12:00:32;18.80;69.40
81192;DHT22;70665;47.652;-2.730;2023-11-19T12:03:01;18.90;66.30
81192;DHT22;70665;47.652;-2.730;2023-11-19T12:05:27;19.20;67.70
81192;DHT22;70665;47.652;-2.730;2023-11-19T12:07:55;19.10;64.90
81192;DHT22;70665;47.652;-2.730;2023-11-19T12:10:24;18.90;65.10
81192;DHT22;70665;47.652;-2.730;2023-11-19T12:12:52;18.40;65.30
81192;DHT22;70665;47.652;-2.730;2023-11-19T12:15:18;18.20;66.60
81192;DHT22;70665;47.652;-2.730;2023-11-19T12:17:51;18.20;65.10
81192;DHT22;70665;47.652;-2.730;2023-11-19T12:20:18;18.10;63.50
81192;DHT22;70665;47.652;-2.730;2023-11-19T12:22:45;17.90;63.80
81192;DHT22;70665;47.652;-2.730;2023-11-19T12:25:12;18.00;68.00
81192;DHT22;70665;47.652;-2.730;2023-11-19T12:27:43;18.60;66.00
81192;DHT22;70665;47.652;-2.730;2023-11-19T12:30:09;19.00;66.30
81192;DHT22;70665;47.652;-2.730;2023-11-19T12:32:38;19.30;63.00
81192;DHT22;70665;47.652;-2.730;2023-11-19T12:35:05;19.60;65.90
81192;DHT22;70665;47.652;-2.730;2023-11-19T12:37:30;20.10;63.90
81192;DHT22;70665;47.652;-2.730;2023-11-19T12:39:57;20.00;62.00
81192;DHT22;70665;47.652;-2.730;2023-11-19T12:42:38;20.40;60.40
81192;DHT22;70665;47.652;-2.730;2023-11-19T12:45:05;19.60;61.70
81192;DHT22;70665;47.652;-2.730;2023-11-19T12:47:31;19.00;64.30
81192;DHT22;70665;47.652;-2.730;2023-11-19T12:49:59;18.30;64.80
81192;DHT22;70665;47.652;-2.730;2023-11-19T12:52:25;17.80;65.80
81192;DHT22;70665;47.652;-2.730;2023-11-19T12:54:50;17.80;66.20
81192;DHT22;70665;47.652;-2.730;2023-11-19T12:57:16;17.70;66.60
81192;DHT22;70665;47.652;-2.730;2023-11-19T12:59:54;18.20;63.50
81192;DHT22;70665;47.652;-2.730;2023-11-19T13:02:21;18.30;65.50
81192;DHT22;70665;47.652;-2.730;2023-11-19T13:04:47;18.30;63.50
81192;DHT22;70665;47.652;-2.730;2023-11-19T13:07:13;18.20;65.90
81192;DHT22;70665;47.652;-2.730;2023-11-19T13:09:38;17.90;64.00
81192;DHT22;70665;47.652;-2.730;2023-11-19T13:12:16;17.80;65.50
81192;DHT22;70665;47.652;-2.730;2023-11-19T13:14:41;17.80;66.40
81192;DHT22;70665;47.652;-2.730;2023-11-19T13:17:13;17.50;67.60
81192;DHT22;70665;47.652;-2.730;2023-11-19T13:19:39;17.50;70.90
81192;DHT22;70665;47.652;-2.730;2023-11-19T13:22:04;17.60;68.00
81192;DHT22;70665;47.652;-2.730;2023-11-19T13:24:30;17.60;68.10
81192;DHT22;70665;47.652;-2.730;2023-11-19T13:26:56;18.50;66.60
81192;DHT22;70665;47.652;-2.730;2023-11-19T13:29:21;18.50;64.10
81192;DHT22;70665;47.652;-2.730;2023-11-19T13:31:47;18.10;64.30
81192;DHT22;70665;47.652;-2.730;2023-11-19T13:34:13;17.80;66.50
81192;DHT22;70665;47.652;-2.730;2023-11-19T13:36:38;18.10;65.80
81192;DHT22;70665;47.652;-2.730;2023-11-19T13:39:04;18.50;66.00
81192;DHT22;70665;47.652;-2.730;2023-11-19T13:41:30;18.30;67.60
81192;DHT22;70665;47.652;-2.730;2023-11-19T13:43:56;17.90;67.60
81192;DHT22;70665;47.652;-2.730;2023-11-19T13:46:21;17.60;71.60
81192;DHT22;70665;47.652;-2.730;2023-11-19T13:48:47;17.40;72.10
81192;DHT22;70665;47.652;-2.730;2023-11-19T13:51:15;17.50;72.80
81192;DHT22;70665;47.652;-2.730;2023-11-19T13:53:40;17.60;70.80
81192;DHT22;70665;47.652;-2.730;2023-11-19T13:56:07;17.50;72.00
81192;DHT22;70665;47.652;-2.730;2023-11-19T13:58:33;17.60;71.30
81192;DHT22;70665;47.652;-2.730;2023-11-19T14:00:58;17.80;69.40
81192;DHT22;70665;47.652;-2.730;2023-11-19T14:03:24;18.90;65.90
81192;DHT22;70665;47.652;-2.730;2023-11-19T14:05:50;19.30;64.10
81192;DHT22;70665;47.652;-2.730;2023-11-19T14:08:17;19.20;63.50
81192;DHT22;70665;47.652;-2.730;2023-11-19T14:10:43;18.70;64.50
81192;DHT22;70665;47.652;-2.730;2023-11-19T14:13:09;18.60;67.20
81192;DHT22;70665;47.652;-2.730;2023-11-19T14:15:34;19.00;65.80
81192;DHT22;70665;47.652;-2.730;2023-11-19T14:18:01;18.50;65.80
81192;DHT22;70665;47.652;-2.730;2023-11-19T14:20:27;17.90;67.30
81192;DHT22;70665;47.652;-2.730;2023-11-19T14:22:52;17.50;68.90
81192;DHT22;70665;47.652;-2.730;2023-11-19T14:25:18;17.40;69.10
81192;DHT22;70665;47.652;-2.730;2023-11-19T14:27:45;17.30;69.00
81192;DHT22;70665;47.652;-2.730;2023-11-19T14:30:12;17.10;68.80
81192;DHT22;70665;47.652;-2.730;2023-11-19T14:32:42;17.80;66.40
81192;DHT22;70665;47.652;-2.730;2023-11-19T14:35:12;17.90;67.50
81192;DHT22;70665;47.652;-2.730;2023-11-19T14:37:38;17.70;66.30
81192;DHT22;70665;47.652;-2.730;2023-11-19T14:40:04;18.00;69.00
81192;DHT22;70665;47.652;-2.730;2023-11-19T14:42:31;17.70;68.70
81192;DHT22;70665;47.652;-2.730;2023-11-19T14:44:57;17.40;68.00
81192;DHT22;70665;47.652;-2.730;2023-11-19T14:47:22;17.20;70.10
81192;DHT22;70665;47.652;-2.730;2023-11-19T14:49:49;16.90;72.00
81192;DHT22;70665;47.652;-2.730;2023-11-19T14:52:14;16.80;71.60
81192;DHT22;70665;47.652;-2.730;2023-11-19T14:54:40;16.60;74.90
81192;DHT22;70665;47.652;-2.730;2023-11-19T14:57:06;16.40;75.60
81192;DHT22;70665;47.652;-2.730;2023-11-19T14:59:36;16.20;76.80
81192;DHT22;70665;47.652;-2.730;2023-11-19T15:02:03;16.40;77.00
81192;DHT22;70665;47.652;-2.730;2023-11-19T15:04:29;16.30;76.40
81192;DHT22;70665;47.652;-2.730;2023-11-19T15:06:58;16.60;75.70
81192;DHT22;70665;47.652;-2.730;2023-11-19T15:09:24;16.80;75.90
81192;DHT22;70665;47.652;-2.730;2023-11-19T15:11:50;17.10;73.90
81192;DHT22;70665;47.652;-2.730;2023-11-19T15:14:16;17.20;71.20
81192;DHT22;70665;47.652;-2.730;2023-11-19T15:16:45;17.50;68.30
81192;DHT22;70665;47.652;-2.730;2023-11-19T15:19:12;17.60;67.60
81192;DHT22;70665;47.652;-2.730;2023-11-19T15:21:42;17.60;68.50
81192;DHT22;70665;47.652;-2.730;2023-11-19T15:24:08;17.40;67.60
81192;DHT22;70665;47.652;-2.730;2023-11-19T15:26:35;17.10;68.40
81192;DHT22;70665;47.652;-2.730;2023-11-19T15:29:04;17.20;69.10